createdAt,value
2019-03-24T00:00:36.177Z,98035.91
2019-03-24T00:03:07.169Z,98033.31
2019-03-24T00:05:38.016Z,98029.38
2019-03-24T00:08:09.862Z,98031.50
2019-03-24T00:10:40.680Z,98032.34
2019-03-24T00:13:11.559Z,98025.64
2019-03-24T00:15:42.387Z,98022.16
2019-03-24T00:18:13.196Z,98022.95
2019-03-24T00:20:43.983Z,98019.48
2019-03-24T00:23:14.760Z,98026.05
2019-03-24T00:25:45.501Z,98022.66
2019-03-24T00:28:16.300Z,98019.89
2019-03-24T00:30:47.078Z,98019.56
2019-03-24T00:33:17.870Z,98020.91
2019-03-24T00:35:52.102Z,98015.16
2019-03-24T00:38:22.848Z,98012.39
2019-03-24T00:40:53.650Z,98017.77
2019-03-24T00:43:24.437Z,98016.97
2019-03-24T00:45:55.248Z,98008.05
2019-03-24T00:48:26.000Z,98008.51
2019-03-24T00:50:56.772Z,98000.41
2019-03-24T00:53:27.582Z,98000.45
2019-03-24T00:55:59.660Z,97994.63
2019-03-24T00:58:31.448Z,97992.91
2019-03-24T01:01:02.298Z,97995.09
2019-03-24T01:03:33.184Z,97993.19
2019-03-24T01:06:04.313Z,97986.20
2019-03-24T01:08:35.137Z,97984.91
2019-03-24T01:11:07.624Z,97986.98
2019-03-24T01:13:38.525Z,97981.06
2019-03-24T01:16:09.316Z,97979.25
2019-03-24T01:18:40.130Z,97980.09
2019-03-24T01:21:10.880Z,97977.83
2019-03-24T01:23:41.679Z,97976.57
2019-03-24T01:26:12.476Z,97973.39
2019-03-24T01:28:43.270Z,97967.09
2019-03-24T01:31:13.998Z,97964.88
2019-03-24T01:33:44.769Z,97959.41
2019-03-24T01:36:15.534Z,97957.23
2019-03-24T01:38:46.355Z,97957.23
2019-03-24T01:41:17.100Z,97950.20
2019-03-24T01:43:47.926Z,97953.67
2019-03-24T01:46:19.767Z,97945.62
2019-03-24T01:48:50.529Z,97943.87
2019-03-24T01:51:21.332Z,97941.18
2019-03-24T01:53:52.134Z,97938.50
2019-03-24T01:56:23.021Z,97935.81
2019-03-24T01:58:53.791Z,97926.92
2019-03-24T02:01:24.543Z,97931.33
2019-03-24T02:03:55.523Z,97926.42
2019-03-24T02:06:26.260Z,97930.16
2019-03-24T02:08:57.058Z,97931.88
2019-03-24T02:11:30.489Z,97927.77
2019-03-24T02:14:01.303Z,97921.70
2019-03-24T02:16:32.473Z,97919.89
2019-03-24T02:19:03.354Z,97916.89
2019-03-24T02:21:34.113Z,97916.34
2019-03-24T02:24:04.987Z,97915.73
2019-03-24T02:26:35.806Z,97917.36
2019-03-24T02:29:06.721Z,97914.21
2019-03-24T02:31:37.476Z,97912.95
2019-03-24T02:34:08.280Z,97911.94
2019-03-24T02:36:39.501Z,97910.59
2019-03-24T02:39:10.399Z,97908.75
2019-03-24T02:41:41.182Z,97903.38
2019-03-24T02:44:11.951Z,97909.62
2019-03-24T02:46:42.777Z,97904.03
2019-03-24T02:49:13.651Z,97903.88
2019-03-24T02:51:44.430Z,97902.22
2019-03-24T02:54:15.250Z,97904.13
2019-03-24T02:56:47.619Z,97907.59
2019-03-24T02:59:18.431Z,97913.27
2019-03-24T03:01:49.266Z,97913.34
2019-03-24T03:04:20.257Z,97911.62
2019-03-24T03:06:51.267Z,97910.27
2019-03-24T03:09:22.028Z,97909.31
2019-03-24T03:11:52.894Z,97913.34
2019-03-24T03:14:23.736Z,97913.05
2019-03-24T03:16:54.528Z,97911.70
2019-03-24T03:19:25.355Z,97914.08
2019-03-24T03:21:56.258Z,97907.36
2019-03-24T03:24:27.088Z,97913.14
2019-03-24T03:26:58.091Z,97914.63
2019-03-24T03:29:28.863Z,97912.97
2019-03-24T03:32:00.722Z,97911.86
2019-03-24T03:34:31.544Z,97910.52
2019-03-24T03:37:02.343Z,97909.58
2019-03-24T03:39:40.266Z,97908.80
2019-03-24T03:42:11.107Z,97910.05
2019-03-24T03:44:41.913Z,97905.33
2019-03-24T03:47:12.743Z,97902.64
2019-03-24T03:49:43.493Z,97902.64
2019-03-24T03:52:14.329Z,97896.95
2019-03-24T03:54:45.109Z,97894.50
2019-03-24T03:57:16.093Z,97898.94
2019-03-24T03:59:46.830Z,97895.75
2019-03-24T04:02:17.648Z,97895.47
2019-03-24T04:04:48.395Z,97894.04
2019-03-24T04:07:19.255Z,97901.30
2019-03-24T04:09:50.052Z,97898.70
2019-03-24T04:12:20.894Z,97899.87
2019-03-24T04:14:51.631Z,97905.33
2019-03-24T04:17:22.409Z,97900.42
2019-03-24T04:19:53.193Z,97899.50
2019-03-24T04:22:24.092Z,97897.37
2019-03-24T04:24:54.845Z,97894.74
2019-03-24T04:27:25.732Z,97893.41
2019-03-24T04:29:56.455Z,97885.35
2019-03-24T04:32:28.353Z,97888.77
2019-03-24T04:34:59.223Z,97887.57
2019-03-24T04:37:32.841Z,97887.72
2019-03-24T04:40:02.810Z,97893.34
2019-03-24T04:42:33.644Z,97887.16
2019-03-24T04:45:04.478Z,97891.59
2019-03-24T04:47:37.541Z,97890.72
2019-03-24T04:50:08.639Z,97888.03
2019-03-24T04:52:39.461Z,97889.37
2019-03-24T04:55:10.211Z,97887.16
2019-03-24T04:57:42.431Z,97892.94
2019-03-24T05:00:13.236Z,97890.66
2019-03-24T05:02:44.007Z,97889.90
2019-03-24T05:05:14.846Z,97890.25
2019-03-24T05:07:45.617Z,97895.62
2019-03-24T05:10:26.926Z,97893.16
2019-03-24T05:12:57.840Z,97896.95
2019-03-24T05:15:29.698Z,97897.48
2019-03-24T05:18:00.461Z,97893.87
2019-03-24T05:20:31.270Z,97891.74
2019-03-24T05:23:02.021Z,97897.16
2019-03-24T05:25:32.923Z,97897.89
2019-03-24T05:28:04.911Z,97893.41
2019-03-24T05:30:35.759Z,97887.16
2019-03-24T05:33:06.595Z,97887.57
2019-03-24T05:35:38.352Z,97889.44
2019-03-24T05:38:09.151Z,97889.37
2019-03-24T05:40:40.009Z,97881.38
2019-03-24T05:43:10.774Z,97882.73
2019-03-24T05:45:41.550Z,97876.02
2019-03-24T05:48:12.322Z,97873.59
2019-03-24T05:50:43.117Z,97875.91
2019-03-24T05:53:13.904Z,97880.92
2019-03-24T05:55:44.740Z,97873.34
2019-03-24T05:58:16.544Z,97872.41
2019-03-24T06:00:47.318Z,97873.89
2019-03-24T06:03:18.128Z,97878.70
2019-03-24T06:05:48.908Z,97879.98
2019-03-24T06:08:19.715Z,97878.18
2019-03-24T06:10:50.581Z,97881.85
2019-03-24T06:13:21.415Z,97882.67
2019-03-24T06:15:52.175Z,97881.38
2019-03-24T06:18:22.995Z,97873.42
2019-03-24T06:20:53.774Z,97874.30
2019-03-24T06:23:24.565Z,97864.36
2019-03-24T06:25:58.614Z,97864.36
2019-03-24T06:28:29.393Z,97859.92
2019-03-24T06:31:01.735Z,97858.52
2019-03-24T06:33:32.618Z,97860.19
2019-03-24T06:36:03.370Z,97852.13
2019-03-24T06:38:36.774Z,97852.13
2019-03-24T06:41:07.545Z,97845.83
2019-03-24T06:43:38.323Z,97853.16
2019-03-24T06:46:09.183Z,97856.06
2019-03-24T06:48:39.930Z,97856.16
2019-03-24T06:51:10.671Z,97856.94
2019-03-24T06:53:41.431Z,97857.91
2019-03-24T06:56:12.396Z,97853.09
2019-03-24T06:58:43.222Z,97852.54
2019-03-24T07:01:14.058Z,97849.77
2019-03-24T07:03:44.893Z,97846.62
2019-03-24T07:06:16.035Z,97850.36
2019-03-24T07:08:46.926Z,97854.23
2019-03-24T07:11:17.771Z,97849.80
2019-03-24T07:13:48.634Z,97846.66
2019-03-24T07:16:20.185Z,97847.91
2019-03-24T07:18:51.979Z,97845.22
2019-03-24T07:21:22.722Z,97840.50
2019-03-24T07:23:53.573Z,97843.19
2019-03-24T07:26:24.491Z,97843.97
2019-03-24T07:28:55.329Z,97846.66
2019-03-24T07:31:26.184Z,97836.48
2019-03-24T07:33:57.011Z,97831.80
2019-03-24T07:36:28.315Z,97836.58
2019-03-24T07:39:00.188Z,97834.67
2019-03-24T07:41:35.232Z,97825.28
2019-03-24T07:44:06.106Z,97820.94
2019-03-24T07:46:38.109Z,97821.50
2019-03-24T07:49:08.878Z,97814.79
2019-03-24T07:51:39.749Z,97814.32
2019-03-24T07:54:10.634Z,97813.82
2019-03-24T07:56:41.457Z,97802.29
2019-03-24T07:59:12.253Z,97800.03
2019-03-24T08:01:43.036Z,97799.80
2019-03-24T08:04:13.811Z,97787.00
2019-03-24T08:06:44.572Z,97784.59
2019-03-24T08:09:15.388Z,97786.16
2019-03-24T08:11:46.128Z,97782.14
2019-03-24T08:14:16.963Z,97782.14
2019-03-24T08:16:47.843Z,97778.59
2019-03-24T08:19:18.684Z,97776.84
2019-03-24T08:21:49.447Z,97770.69
2019-03-24T08:24:20.265Z,97771.89
2019-03-24T08:26:51.101Z,97770.70
2019-03-24T08:29:21.960Z,97768.71
2019-03-24T08:31:53.884Z,97767.92
2019-03-24T08:34:24.680Z,97765.71
2019-03-24T08:36:55.472Z,97756.28
2019-03-24T08:39:26.296Z,97754.77
2019-03-24T08:41:57.195Z,97751.09
2019-03-24T08:44:28.017Z,97749.81
2019-03-24T08:46:58.790Z,97741.23
2019-03-24T08:49:29.612Z,97740.49
2019-03-24T08:52:00.365Z,97736.88
2019-03-24T08:54:31.123Z,97729.20
2019-03-24T08:57:01.929Z,97729.98
2019-03-24T08:59:32.837Z,97725.41
2019-03-24T09:02:03.731Z,97723.02
2019-03-24T09:04:34.466Z,97726.25
2019-03-24T09:07:05.305Z,97708.69
2019-03-24T09:09:36.098Z,97707.91
2019-03-24T09:12:06.896Z,97704.16
2019-03-24T09:14:37.814Z,97701.79
2019-03-24T09:17:08.826Z,97695.08
2019-03-24T09:19:39.618Z,97687.28
2019-03-24T09:22:10.333Z,97687.23
2019-03-24T09:24:41.122Z,97684.88
2019-03-24T09:27:11.876Z,97677.73
2019-03-24T09:29:42.634Z,97679.23
2019-03-24T09:32:13.368Z,97669.84
2019-03-24T09:34:44.115Z,97665.52
2019-03-24T09:37:14.848Z,97666.45
2019-03-24T09:39:46.029Z,97662.83
2019-03-24T09:42:17.815Z,97656.54
2019-03-24T09:44:48.721Z,97658.91
2019-03-24T09:47:19.534Z,97656.00
2019-03-24T09:49:50.415Z,97654.34
2019-03-24T09:52:21.256Z,97657.12
2019-03-24T09:54:52.075Z,97653.41
2019-03-24T09:57:22.908Z,97653.64
2019-03-24T09:59:54.426Z,97652.77
2019-03-24T10:02:26.160Z,97649.70
2019-03-24T10:04:59.942Z,97644.34
2019-03-24T10:10:00.350Z,97635.03
2019-03-24T10:12:31.128Z,97632.06
2019-03-24T10:15:01.921Z,97621.01
2019-03-24T10:17:33.803Z,97617.36
2019-03-24T10:20:04.641Z,97612.31
2019-03-24T10:22:35.492Z,97608.88
2019-03-24T10:25:06.490Z,97608.32
2019-03-24T10:27:38.594Z,97608.41
2019-03-24T10:30:09.496Z,97604.64
2019-03-24T10:32:40.288Z,97609.38
2019-03-24T10:35:11.168Z,97607.64
2019-03-24T10:37:41.956Z,97595.27
2019-03-24T10:40:12.776Z,97597.32
2019-03-24T10:42:43.686Z,97590.31
2019-03-24T10:45:16.100Z,97589.06
2019-03-24T10:47:46.870Z,97581.14
2019-03-24T10:50:17.629Z,97574.19
2019-03-24T10:52:48.437Z,97571.16
2019-03-24T10:55:19.286Z,97569.32
2019-03-24T10:57:50.051Z,97559.78
2019-03-24T11:00:38.070Z,97559.66
2019-03-24T11:03:09.240Z,97554.98
2019-03-24T11:05:42.239Z,97554.36
2019-03-24T11:08:13.085Z,97546.63
2019-03-24T11:10:43.920Z,97542.14
2019-03-24T11:13:14.761Z,97542.91
2019-03-24T11:15:45.595Z,97546.74
2019-03-24T11:18:16.520Z,97538.07
2019-03-24T11:20:47.403Z,97538.84
2019-03-24T11:23:18.268Z,97531.95
2019-03-24T11:25:49.108Z,97526.42
2019-03-24T11:28:19.965Z,97513.78
2019-03-24T11:30:50.809Z,97511.31
2019-03-24T11:33:21.639Z,97511.98
2019-03-24T11:35:53.502Z,97509.20
2019-03-24T11:38:24.299Z,97501.06
2019-03-24T11:40:56.121Z,97492.17
2019-03-24T11:43:27.074Z,97493.88
2019-03-24T11:45:59.439Z,97485.37
2019-03-24T11:48:30.315Z,97482.98
2019-03-24T11:51:01.141Z,97478.09
2019-03-24T11:53:31.903Z,97461.53
2019-03-24T11:56:03.779Z,97457.00
2019-03-24T11:58:34.617Z,97456.06
2019-03-24T12:01:05.714Z,97451.57
2019-03-24T12:03:37.155Z,97448.39
2019-03-24T12:06:14.436Z,97445.03
2019-03-24T12:08:40.694Z,97435.55
2019-03-24T12:11:11.556Z,97436.89
2019-03-24T12:13:42.362Z,97428.77
2019-03-24T12:16:13.171Z,97412.67
2019-03-24T12:18:44.110Z,97410.83
2019-03-24T12:21:14.970Z,97399.34
2019-03-24T12:23:45.791Z,97401.08
2019-03-24T12:26:16.913Z,97392.56
2019-03-24T12:28:47.851Z,97389.88
2019-03-24T12:31:18.656Z,97383.64
2019-03-24T12:33:49.837Z,97377.80
2019-03-24T12:36:20.652Z,97366.67
2019-03-24T12:38:51.470Z,97367.08
2019-03-24T12:41:22.248Z,97359.86
2019-03-24T12:43:54.113Z,97352.80
2019-03-24T12:46:25.203Z,97347.03
2019-03-24T12:48:56.088Z,97337.64
2019-03-24T12:51:26.969Z,97339.48
2019-03-24T12:53:57.901Z,97331.52
2019-03-24T12:56:28.859Z,97316.11
2019-03-24T12:59:02.815Z,97318.50
2019-03-24T13:01:33.787Z,97321.28
2019-03-24T13:04:04.913Z,97319.55
2019-03-24T13:06:35.824Z,97319.64
2019-03-24T13:09:08.212Z,97322.70
2019-03-24T13:11:41.173Z,97312.07
2019-03-24T13:14:12.912Z,97301.05
2019-03-24T13:16:43.916Z,97299.70
2019-03-24T13:19:14.910Z,97301.16
2019-03-24T13:21:45.692Z,97289.48
2019-03-24T13:24:16.506Z,97294.84
2019-03-24T13:26:47.429Z,97286.40
2019-03-24T13:29:18.351Z,97284.12
2019-03-24T13:31:49.164Z,97281.51
2019-03-24T13:34:20.329Z,97279.70
2019-03-24T13:36:51.636Z,97277.59
2019-03-24T13:39:23.391Z,97273.09
2019-03-24T13:41:54.430Z,97274.04
2019-03-24T13:44:25.291Z,97264.19
2019-03-24T13:46:56.168Z,97262.27
2019-03-24T13:49:26.968Z,97260.82
2019-03-24T13:51:58.893Z,97257.09
2019-03-24T13:54:29.696Z,97249.63
2019-03-24T13:57:00.632Z,97251.54
2019-03-24T13:59:31.595Z,97245.41
2019-03-24T14:02:02.669Z,97245.59
2019-03-24T14:04:33.660Z,97240.63
2019-03-24T14:07:04.554Z,97236.61
2019-03-24T14:09:35.399Z,97228.56
2019-03-24T14:12:06.507Z,97223.67
2019-03-24T14:14:40.411Z,97225.13
2019-03-24T14:17:11.386Z,97218.48
2019-03-24T14:19:42.247Z,97215.55
2019-03-24T14:22:13.250Z,97208.91
2019-03-24T14:24:44.020Z,97203.19
2019-03-24T14:27:14.845Z,97197.34
2019-03-24T14:29:49.199Z,97194.74
2019-03-24T14:32:19.963Z,97192.83
2019-03-24T14:34:50.837Z,97195.61
2019-03-24T14:37:21.622Z,97185.86
2019-03-24T14:39:52.455Z,97188.14
2019-03-24T14:42:25.132Z,97182.42
2019-03-24T14:44:56.042Z,97178.39
2019-03-24T14:47:27.014Z,97170.34
2019-03-24T14:49:57.879Z,97176.66
2019-03-24T14:52:28.672Z,97169.95
2019-03-24T14:54:59.543Z,97163.72
2019-03-24T14:57:30.336Z,97159.23
2019-03-24T15:00:01.135Z,97155.20
2019-03-24T15:02:32.046Z,97152.53
2019-03-24T15:05:03.103Z,97146.80
2019-03-24T15:07:33.943Z,97148.61
2019-03-24T15:10:05.012Z,97145.06
2019-03-24T15:12:35.852Z,97143.72
2019-03-24T15:15:07.437Z,97139.70
2019-03-24T15:17:38.472Z,97137.48
2019-03-24T15:20:09.348Z,97136.14
2019-03-24T15:22:40.223Z,97128.69
2019-03-24T15:25:11.105Z,97128.61
2019-03-24T15:27:41.880Z,97124.19
2019-03-24T15:30:14.377Z,97127.27
2019-03-24T15:32:45.305Z,97119.22
2019-03-24T15:35:17.484Z,97124.19
2019-03-24T15:37:48.279Z,97121.98
2019-03-24T15:40:19.123Z,97119.41
2019-03-24T15:42:50.064Z,97115.96
2019-03-24T15:45:21.074Z,97113.46
2019-03-24T15:47:52.021Z,97117.38
2019-03-24T15:50:22.849Z,97117.67
2019-03-24T15:52:53.715Z,97114.88
2019-03-24T15:55:24.573Z,97110.97
2019-03-24T15:57:55.495Z,97113.54
2019-03-24T16:00:48.374Z,97116.14
2019-03-24T16:03:19.468Z,97115.38
2019-03-24T16:05:50.291Z,97112.59
2019-03-24T16:08:21.204Z,97113.54
2019-03-24T16:10:53.091Z,97114.88
2019-03-24T16:13:24.091Z,97111.73
2019-03-24T16:15:55.062Z,97113.94
2019-03-24T16:18:25.916Z,97117.48
2019-03-24T16:20:58.449Z,97112.59
2019-03-24T16:23:29.330Z,97109.44
2019-03-24T16:26:00.161Z,97108.75
2019-03-24T16:28:31.076Z,97104.27
2019-03-24T16:31:01.966Z,97106.08
2019-03-24T16:33:32.861Z,97103.79
2019-03-24T16:36:03.721Z,97101.58
2019-03-24T16:38:34.523Z,97105.13
2019-03-24T16:41:06.736Z,97099.48
2019-03-24T16:43:37.686Z,97101.40
2019-03-24T16:46:08.753Z,97103.14
2019-03-24T16:48:39.800Z,97099.95
2019-03-24T16:51:10.621Z,97099.95
2019-03-24T16:53:41.546Z,97101.22
2019-03-24T16:56:12.370Z,97100.34
2019-03-24T16:58:43.191Z,97104.48
2019-03-24T17:01:15.107Z,97102.63
2019-03-24T17:03:46.184Z,97097.37
2019-03-24T17:06:17.051Z,97097.84
2019-03-24T17:08:47.910Z,97101.40
2019-03-24T17:11:18.713Z,97102.45
2019-03-24T17:13:50.617Z,97102.45
2019-03-24T17:16:22.603Z,97102.09
2019-03-24T17:18:53.635Z,97103.90
2019-03-24T17:21:24.557Z,97105.23
2019-03-24T17:23:55.417Z,97103.14
2019-03-24T17:26:26.316Z,97105.06
2019-03-24T17:28:57.202Z,97104.59
2019-03-24T17:31:28.017Z,97108.13
2019-03-24T17:34:00.143Z,97109.95
2019-03-24T17:36:32.507Z,97109.48
2019-03-24T17:39:03.447Z,97119.98
2019-03-24T17:41:34.718Z,97114.15
2019-03-24T17:44:07.973Z,97119.52
2019-03-24T17:46:38.809Z,97119.11
2019-03-24T17:49:10.779Z,97125.34
2019-03-24T17:51:44.948Z,97126.32
2019-03-24T17:54:16.757Z,97129.00
2019-03-24T17:56:48.695Z,97137.05
2019-03-24T17:59:22.813Z,97133.50
2019-03-24T18:01:54.833Z,97141.06
2019-03-24T18:04:26.139Z,97138.28
2019-03-24T18:06:57.053Z,97142.30
2019-03-24T18:09:27.874Z,97140.95
2019-03-24T18:11:59.105Z,97140.95
2019-03-24T18:14:30.439Z,97140.95
2019-03-24T18:17:03.163Z,97137.80
2019-03-24T18:19:37.142Z,97141.83
2019-03-24T18:22:11.790Z,97143.17
2019-03-24T18:24:41.529Z,97141.43
2019-03-24T18:27:13.822Z,97146.32
2019-03-24T18:29:44.706Z,97152.63
2019-03-24T18:32:15.483Z,97151.39
2019-03-24T18:34:46.368Z,97151.28
2019-03-24T18:37:17.591Z,97155.31
2019-03-24T18:39:49.476Z,97154.36
2019-03-24T18:42:20.382Z,97155.23
2019-03-24T18:44:51.394Z,97155.81
2019-03-24T18:47:22.208Z,97155.31
2019-03-24T18:49:53.160Z,97160.20
2019-03-24T18:52:24.180Z,97162.52
2019-03-24T18:54:55.119Z,97164.80
2019-03-24T18:57:27.054Z,97169.03
2019-03-24T18:59:57.989Z,97170.16
2019-03-24T19:02:28.973Z,97169.10
2019-03-24T19:04:59.840Z,97176.31
2019-03-24T19:07:33.179Z,97183.56
2019-03-24T19:10:04.209Z,97189.33
2019-03-24T19:12:37.093Z,97185.09
2019-03-24T19:15:12.937Z,97195.64
2019-03-24T19:17:43.909Z,97198.31
2019-03-24T19:20:20.370Z,97202.98
2019-03-24T19:22:51.678Z,97202.22
2019-03-24T19:25:24.593Z,97207.11
2019-03-24T19:27:57.476Z,97206.17
2019-03-24T19:30:39.195Z,97208.64
2019-03-24T19:33:12.161Z,97216.52
2019-03-24T19:35:43.322Z,97217.64
2019-03-24T19:38:14.529Z,97218.52
2019-03-24T19:40:45.364Z,97217.94
2019-03-24T19:43:17.590Z,97219.27
2019-03-24T19:45:48.563Z,97222.62
2019-03-24T19:48:19.411Z,97224.35
2019-03-24T19:50:50.597Z,97234.11
2019-03-24T19:53:21.954Z,97231.42
2019-03-24T19:55:54.498Z,97228.64
2019-03-24T19:58:29.160Z,97232.59
2019-03-24T20:01:02.536Z,97234.77
2019-03-24T20:03:35.417Z,97228.83
2019-03-24T20:06:06.247Z,97229.80
2019-03-24T20:08:41.368Z,97237.38
2019-03-24T20:11:14.451Z,97233.35
2019-03-24T20:13:45.392Z,97242.73
2019-03-24T20:16:17.362Z,97233.72
2019-03-24T20:18:48.253Z,97233.35
2019-03-24T20:21:23.555Z,97234.19
2019-03-24T20:23:54.389Z,97234.30
2019-03-24T20:26:26.311Z,97238.61
2019-03-24T20:28:57.474Z,97238.61
2019-03-24T20:31:28.407Z,97241.29
2019-03-24T20:33:59.293Z,97250.68
2019-03-24T20:36:30.174Z,97245.97
2019-03-24T20:39:01.023Z,97250.00
2019-03-24T20:41:33.799Z,97249.42
2019-03-24T20:44:04.609Z,97254.02
2019-03-24T20:46:35.506Z,97254.89
2019-03-24T20:49:06.534Z,97252.97
2019-03-24T20:51:37.996Z,97253.34
2019-03-24T20:54:08.790Z,97244.45
2019-03-24T20:56:41.413Z,97250.19
2019-03-24T20:59:13.682Z,97245.69
2019-03-24T21:01:46.838Z,97239.34
2019-03-24T21:04:20.191Z,97241.48
2019-03-24T21:06:50.349Z,97245.51
2019-03-24T21:09:21.774Z,97238.80
2019-03-24T21:11:53.461Z,97246.85
2019-03-24T21:14:25.019Z,97244.09
2019-03-24T21:16:56.359Z,97242.83
2019-03-24T21:19:27.261Z,97239.67
2019-03-24T21:21:58.041Z,97246.67
2019-03-24T21:24:29.203Z,97243.88
2019-03-24T21:27:00.725Z,97245.52
2019-03-24T21:29:31.589Z,97245.52
2019-03-24T21:32:02.542Z,97247.73
2019-03-24T21:34:35.892Z,97245.62
2019-03-24T21:37:06.735Z,97249.64
2019-03-24T21:39:37.656Z,97247.11
2019-03-24T21:42:08.652Z,97244.54
2019-03-24T21:44:41.540Z,97243.59
2019-03-24T21:47:12.359Z,97243.02
2019-03-24T21:49:43.448Z,97238.99
2019-03-24T21:52:14.321Z,97237.72
2019-03-24T21:54:45.189Z,97226.05
2019-03-24T21:57:15.988Z,97228.16
2019-03-24T21:59:46.771Z,97232.17
2019-03-24T22:02:17.687Z,97233.30
2019-03-24T22:04:48.540Z,97233.30
2019-03-24T22:07:19.437Z,97229.49
2019-03-24T22:09:50.307Z,97232.94
2019-03-24T22:12:21.243Z,97228.63
2019-03-24T22:14:52.053Z,97232.07
2019-03-24T22:17:22.926Z,97226.34
2019-03-24T22:19:53.765Z,97224.89
2019-03-24T22:22:24.584Z,97224.02
2019-03-24T22:24:55.350Z,97224.42
2019-03-24T22:27:26.152Z,97222.20
2019-03-24T22:29:57.014Z,97221.23
2019-03-24T22:32:27.851Z,97218.18
2019-03-24T22:35:00.354Z,97221.73
2019-03-24T22:37:32.238Z,97215.86
2019-03-24T22:40:03.013Z,97208.39
2019-03-24T22:42:33.854Z,97206.47
2019-03-24T22:45:04.666Z,97204.77
2019-03-24T22:47:35.451Z,97210.13
2019-03-24T22:50:06.757Z,97197.19
2019-03-24T22:52:37.543Z,97197.66
2019-03-24T22:55:08.531Z,97192.88
2019-03-24T22:57:39.382Z,97186.16
2019-03-24T23:00:13.399Z,97178.12
2019-03-24T23:02:45.929Z,97174.96
2019-03-24T23:05:17.773Z,97177.75
2019-03-24T23:07:48.620Z,97168.73
2019-03-24T23:10:19.459Z,97165.20
2019-03-24T23:12:50.333Z,97164.70
2019-03-24T23:15:21.186Z,97167.97
2019-03-24T23:17:51.967Z,97155.06
2019-03-24T23:20:22.817Z,97154.66
2019-03-24T23:22:53.681Z,97146.14
2019-03-24T23:25:24.498Z,97143.45
2019-03-24T23:27:56.402Z,97141.25
2019-03-24T23:30:27.276Z,97132.36
2019-03-24T23:32:58.151Z,97122.86
2019-03-24T23:35:29.074Z,97126.02
2019-03-24T23:37:59.923Z,97122.97
2019-03-24T23:40:31.318Z,97120.00
2019-03-24T23:43:02.095Z,97118.55
2019-03-24T23:45:32.936Z,97117.43
2019-03-24T23:48:03.875Z,97106.20
2019-03-24T23:50:34.760Z,97112.06
2019-03-24T23:53:05.643Z,97106.59
2019-03-24T23:55:37.527Z,97110.52
2019-03-24T23:58:07.286Z,97110.73
